createdAt,value
2023-05-07T00:00:26.821Z,7.17
2023-05-07T00:02:54.410Z,8.20
2023-05-07T00:05:21.971Z,7.33
2023-05-07T00:07:49.184Z,7.50
2023-05-07T00:10:16.337Z,7.30
2023-05-07T00:12:44.030Z,7.53
2023-05-07T00:15:11.874Z,7.23
2023-05-07T00:17:39.434Z,7.33
2023-05-07T00:20:07.019Z,7.33
2023-05-07T00:22:34.278Z,8.53
2023-05-07T00:25:01.610Z,8.60
2023-05-07T00:27:28.759Z,7.57
2023-05-07T00:29:55.983Z,7.93
2023-05-07T00:32:23.313Z,7.73
2023-05-07T00:34:51.875Z,8.30
2023-05-07T00:37:19.084Z,7.97
2023-05-07T00:39:46.226Z,8.97
2023-05-07T00:42:13.411Z,8.43
2023-05-07T00:44:40.647Z,8.30
2023-05-07T00:47:08.244Z,8.20
2023-05-07T00:49:43.430Z,9.70
2023-05-07T00:52:15.374Z,9.00
2023-05-07T00:54:43.356Z,9.83
2023-05-07T00:57:12.352Z,8.93
2023-05-07T00:59:40.661Z,9.13
2023-05-07T01:02:08.819Z,9.53
2023-05-07T01:04:36.276Z,8.97
2023-05-07T01:07:04.129Z,9.30
2023-05-07T01:09:31.316Z,8.53
2023-05-07T01:11:59.283Z,9.57
2023-05-07T01:14:26.896Z,9.10
2023-05-07T01:16:54.934Z,8.37
2023-05-07T01:19:24.588Z,8.57
2023-05-07T01:21:52.802Z,8.67
2023-05-07T01:24:22.326Z,8.00
2023-05-07T01:26:49.556Z,8.00
2023-05-07T01:29:18.494Z,7.97
2023-05-07T01:31:48.223Z,9.00
2023-05-07T01:34:16.596Z,9.03
2023-05-07T01:36:44.706Z,8.17
2023-05-07T01:39:12.266Z,8.73
2023-05-07T01:41:39.484Z,8.13
2023-05-07T01:44:07.356Z,8.57
2023-05-07T01:46:35.042Z,8.87
2023-05-07T01:49:02.465Z,8.50
2023-05-07T01:51:30.057Z,8.47
2023-05-07T01:53:57.254Z,8.63
2023-05-07T01:56:24.571Z,8.13
2023-05-07T01:58:52.714Z,8.83
2023-05-07T02:01:20.247Z,8.43
2023-05-07T02:03:48.466Z,8.47
2023-05-07T02:06:22.684Z,8.80
2023-05-07T02:08:50.010Z,8.23
2023-05-07T02:11:17.498Z,8.53
2023-05-07T02:13:44.970Z,8.23
2023-05-07T02:16:12.252Z,8.60
2023-05-07T02:18:40.383Z,8.63
2023-05-07T02:21:07.605Z,9.63
2023-05-07T02:23:35.178Z,9.17
2023-05-07T02:26:02.958Z,8.60
2023-05-07T02:28:30.327Z,7.90
2023-05-07T02:31:05.562Z,7.90
2023-05-07T02:33:33.353Z,7.60
2023-05-07T02:36:07.994Z,8.40
2023-05-07T02:38:36.951Z,7.97
2023-05-07T02:41:04.682Z,7.60
2023-05-07T02:43:32.269Z,6.93
2023-05-07T02:46:06.477Z,6.33
2023-05-07T02:48:36.367Z,7.13
2023-05-07T02:51:03.821Z,6.43
2023-05-07T02:53:31.890Z,6.33
2023-05-07T02:55:59.719Z,6.60
2023-05-07T02:58:26.956Z,6.20
2023-05-07T03:00:55.719Z,5.87
2023-05-07T03:03:39.801Z,5.67
2023-05-07T03:06:07.774Z,6.57
2023-05-07T03:08:35.448Z,5.60
2023-05-07T03:11:02.677Z,5.80
2023-05-07T03:13:30.232Z,5.50
2023-05-07T03:15:57.784Z,5.67
2023-05-07T03:18:25.101Z,6.23
2023-05-07T03:20:53.601Z,6.03
2023-05-07T03:23:22.466Z,5.97
2023-05-07T03:25:51.558Z,5.40
2023-05-07T03:28:19.140Z,7.00
2023-05-07T03:30:57.791Z,6.80
2023-05-07T03:33:25.725Z,6.23
2023-05-07T03:35:52.914Z,6.50
2023-05-07T03:38:25.096Z,6.77
2023-05-07T03:40:52.453Z,6.73
2023-05-07T03:43:19.721Z,6.87
2023-05-07T03:45:52.012Z,6.63
2023-05-07T03:48:23.926Z,6.37
2023-05-07T03:50:53.829Z,6.30
2023-05-07T03:53:22.270Z,6.30
2023-05-07T03:55:49.710Z,6.47
2023-05-07T03:58:17.966Z,7.00
2023-05-07T04:00:45.369Z,7.50
2023-05-07T04:03:20.652Z,7.70
2023-05-07T04:05:48.046Z,7.67
2023-05-07T04:08:15.654Z,8.13
2023-05-07T04:10:47.254Z,7.90
2023-05-07T04:13:14.966Z,7.70
2023-05-07T04:15:43.232Z,7.83
2023-05-07T04:18:13.208Z,7.90
2023-05-07T04:20:42.752Z,8.10
2023-05-07T04:23:12.897Z,7.73
2023-05-07T04:25:41.134Z,7.47
2023-05-07T04:28:14.065Z,7.23
2023-05-07T04:30:42.564Z,7.47
2023-05-07T04:33:11.591Z,7.43
2023-05-07T04:35:41.290Z,8.20
2023-05-07T04:38:09.136Z,6.97
2023-05-07T04:40:38.211Z,7.63
2023-05-07T04:43:05.526Z,7.47
2023-05-07T04:45:40.834Z,7.70
2023-05-07T04:48:08.404Z,7.50
2023-05-07T04:50:35.839Z,7.80
2023-05-07T04:53:04.361Z,8.20
2023-05-07T04:55:31.989Z,7.40
2023-05-07T04:57:59.190Z,7.53
2023-05-07T05:00:27.168Z,7.80
2023-05-07T05:02:57.083Z,7.93
2023-05-07T05:05:24.399Z,7.47
2023-05-07T05:07:54.082Z,7.63
2023-05-07T05:10:24.359Z,7.57
2023-05-07T05:12:52.053Z,7.20
2023-05-07T05:15:19.652Z,7.60
2023-05-07T05:17:47.016Z,7.20
2023-05-07T05:20:15.140Z,7.30
2023-05-07T05:22:45.936Z,7.10
2023-05-07T05:25:14.617Z,8.57
2023-05-07T05:27:41.847Z,7.63
2023-05-07T05:30:10.232Z,7.80
2023-05-07T05:32:38.784Z,7.07
2023-05-07T05:35:07.128Z,7.63
2023-05-07T05:37:34.638Z,7.73
2023-05-07T05:40:04.540Z,7.07
2023-05-07T05:42:32.228Z,6.60
2023-05-07T05:44:59.729Z,7.47
2023-05-07T05:47:28.101Z,6.63
2023-05-07T05:49:56.917Z,6.20
2023-05-07T05:52:24.841Z,7.10
2023-05-07T05:54:52.471Z,6.17
2023-05-07T05:57:20.785Z,6.50
2023-05-07T05:59:48.555Z,5.83
2023-05-07T06:02:15.912Z,5.93
2023-05-07T06:04:43.658Z,5.13
2023-05-07T06:07:13.680Z,4.70
2023-05-07T06:09:41.434Z,5.03
2023-05-07T06:12:08.811Z,4.20
2023-05-07T06:14:37.032Z,5.03
2023-05-07T06:17:04.347Z,5.10
2023-05-07T06:19:32.023Z,4.87
2023-05-07T06:22:02.717Z,4.67
2023-05-07T06:24:31.383Z,4.97
2023-05-07T06:26:59.651Z,4.67
2023-05-07T06:29:28.086Z,4.80
2023-05-07T06:31:55.384Z,5.10
2023-05-07T06:34:23.792Z,4.40
2023-05-07T06:36:51.550Z,4.53
2023-05-07T06:39:29.089Z,4.50
2023-05-07T06:41:56.409Z,4.77
2023-05-07T06:44:28.012Z,4.57
2023-05-07T06:47:15.795Z,4.77
2023-05-07T06:49:45.644Z,5.53
2023-05-07T06:52:16.224Z,5.83
2023-05-07T06:54:43.916Z,6.07
2023-05-07T06:57:11.842Z,5.47
2023-05-07T06:59:39.230Z,5.13
2023-05-07T07:02:06.773Z,5.33
2023-05-07T07:04:34.483Z,5.43
2023-05-07T07:07:06.758Z,6.27
2023-05-07T07:09:34.365Z,6.00
2023-05-07T07:12:03.383Z,5.87
2023-05-07T07:14:31.685Z,5.20
2023-05-07T07:16:59.402Z,5.13
2023-05-07T07:19:27.508Z,5.27
2023-05-07T07:21:56.410Z,4.30
2023-05-07T07:24:23.683Z,3.77
2023-05-07T07:26:56.489Z,3.63
2023-05-07T07:29:27.556Z,4.20
2023-05-07T07:31:55.251Z,4.20
2023-05-07T07:34:22.613Z,3.80
2023-05-07T07:36:50.830Z,3.47
2023-05-07T07:39:19.718Z,3.70
2023-05-07T07:41:49.844Z,4.03
2023-05-07T07:44:18.352Z,3.60
2023-05-07T07:46:51.548Z,3.47
2023-05-07T07:49:19.508Z,3.80
2023-05-07T07:51:46.726Z,3.83
2023-05-07T07:54:14.758Z,4.00
2023-05-07T07:56:42.748Z,3.80
2023-05-07T07:59:11.523Z,3.83
2023-05-07T08:01:41.476Z,4.07
2023-05-07T08:04:09.054Z,4.13
2023-05-07T08:06:39.823Z,4.33
2023-05-07T08:09:09.912Z,3.67
2023-05-07T08:11:39.342Z,3.17
2023-05-07T08:14:07.151Z,3.67
2023-05-07T08:16:34.681Z,3.20
2023-05-07T08:19:03.515Z,3.20
2023-05-07T08:21:33.730Z,3.40
2023-05-07T08:24:02.218Z,3.30
2023-05-07T08:26:30.071Z,3.43
2023-05-07T08:28:57.350Z,3.13
2023-05-07T08:31:25.444Z,3.87
2023-05-07T08:33:52.803Z,3.43
2023-05-07T08:36:20.282Z,3.77
2023-05-07T08:38:47.694Z,3.33
2023-05-07T08:41:15.030Z,3.43
2023-05-07T08:43:48.666Z,3.70
2023-05-07T08:46:19.251Z,3.50
2023-05-07T08:48:49.432Z,3.53
2023-05-07T08:51:18.426Z,3.73
2023-05-07T08:53:46.906Z,4.30
2023-05-07T08:56:20.370Z,4.47
2023-05-07T08:58:50.197Z,4.53
2023-05-07T09:01:18.426Z,4.60
2023-05-07T09:03:49.919Z,4.43
2023-05-07T09:06:18.451Z,4.93
2023-05-07T09:08:51.637Z,4.47
2023-05-07T09:11:22.025Z,4.30
2023-05-07T09:13:51.082Z,4.97
2023-05-07T09:16:18.617Z,4.37
2023-05-07T09:18:48.564Z,4.50
2023-05-07T09:21:16.910Z,5.17
2023-05-07T09:23:45.140Z,4.77
2023-05-07T09:26:13.615Z,4.90
2023-05-07T09:28:43.124Z,4.70
2023-05-07T09:31:13.216Z,4.60
2023-05-07T09:33:42.269Z,4.70
2023-05-07T09:36:11.822Z,4.77
2023-05-07T09:38:41.808Z,4.83
2023-05-07T09:41:10.690Z,4.70
2023-05-07T09:43:44.710Z,5.33
2023-05-07T09:46:15.595Z,4.70
2023-05-07T09:48:49.905Z,4.47
2023-05-07T09:51:24.513Z,4.20
2023-05-07T09:53:52.559Z,4.93
2023-05-07T09:56:21.021Z,4.60
2023-05-07T09:58:48.904Z,5.03
2023-05-07T10:01:20.267Z,5.53
2023-05-07T10:03:48.483Z,5.13
2023-05-07T10:06:16.473Z,5.80
2023-05-07T10:08:44.723Z,5.70
2023-05-07T10:11:12.010Z,5.07
2023-05-07T10:13:39.561Z,5.33
2023-05-07T10:16:09.802Z,5.87
2023-05-07T10:18:43.632Z,5.50
2023-05-07T10:21:20.873Z,5.07
2023-05-07T10:23:51.834Z,5.13
2023-05-07T10:26:22.200Z,4.93
2023-05-07T10:28:52.826Z,4.90
2023-05-07T10:31:58.794Z,5.20
2023-05-07T10:34:29.698Z,5.10
2023-05-07T10:36:57.558Z,4.73
2023-05-07T10:39:25.648Z,5.13
2023-05-07T10:41:53.346Z,5.30
2023-05-07T10:44:30.524Z,4.80
2023-05-07T10:47:10.656Z,5.80
2023-05-07T10:49:45.589Z,4.73
2023-05-07T10:52:24.257Z,5.27
2023-05-07T10:55:22.296Z,4.70
2023-05-07T10:57:58.006Z,4.63
2023-05-07T11:03:08.600Z,4.30
2023-05-07T11:06:11.337Z,4.60
2023-05-07T11:08:57.152Z,4.60
2023-05-07T11:11:56.594Z,4.60
2023-05-07T11:14:46.185Z,4.17
2023-05-07T11:17:21.734Z,4.37
2023-05-07T11:19:57.091Z,3.93
2023-05-07T11:22:42.643Z,4.60
2023-05-07T11:25:36.215Z,4.17
2023-05-07T11:28:14.450Z,3.70
2023-05-07T11:30:51.635Z,4.00
2023-05-07T11:33:21.130Z,4.67
2023-05-07T11:35:51.721Z,4.10
2023-05-07T11:38:21.068Z,4.50
2023-05-07T11:40:55.514Z,3.97
2023-05-07T11:43:22.744Z,4.43
2023-05-07T11:45:50.661Z,4.90
2023-05-07T11:48:18.452Z,4.10
2023-05-07T11:50:53.599Z,4.47
2023-05-07T11:53:21.781Z,4.50
2023-05-07T11:55:49.087Z,4.57
2023-05-07T11:58:22.309Z,4.23
2023-05-07T12:00:50.611Z,4.30
2023-05-07T12:03:19.014Z,4.30
2023-05-07T12:05:46.804Z,4.23
2023-05-07T12:08:17.229Z,4.60
2023-05-07T12:10:44.697Z,4.40
2023-05-07T12:13:22.481Z,4.40
2023-05-07T12:15:56.556Z,4.33
2023-05-07T12:18:24.711Z,3.83
2023-05-07T12:20:52.359Z,4.40
2023-05-07T12:23:19.872Z,4.13
2023-05-07T12:25:49.861Z,4.10
2023-05-07T12:28:17.777Z,3.93
2023-05-07T12:30:45.792Z,3.63
2023-05-07T12:33:13.085Z,4.10
2023-05-07T12:35:43.630Z,4.00
2023-05-07T12:38:11.651Z,4.27
2023-05-07T12:40:39.800Z,3.93
2023-05-07T12:43:07.023Z,4.40
2023-05-07T12:45:38.818Z,4.50
2023-05-07T12:48:06.276Z,4.00
2023-05-07T12:50:34.253Z,4.23
2023-05-07T12:53:01.569Z,4.00
2023-05-07T12:55:34.865Z,4.03
2023-05-07T12:58:03.679Z,4.30
2023-05-07T13:00:35.088Z,4.27
2023-05-07T13:03:02.373Z,4.27
2023-05-07T13:05:29.781Z,3.90
2023-05-07T13:07:57.392Z,4.13
2023-05-07T13:10:24.943Z,3.57
2023-05-07T13:12:52.427Z,4.10
2023-05-07T13:15:21.291Z,3.87
2023-05-07T13:17:48.669Z,3.13
2023-05-07T13:20:16.501Z,3.77
2023-05-07T13:22:43.735Z,3.47
2023-05-07T13:25:11.268Z,3.83
2023-05-07T13:27:38.717Z,3.73
2023-05-07T13:30:06.683Z,4.03
2023-05-07T13:32:34.400Z,3.83
2023-05-07T13:35:01.678Z,3.60
2023-05-07T13:37:29.336Z,3.83
2023-05-07T13:39:56.517Z,4.27
2023-05-07T13:42:23.774Z,3.60
2023-05-07T13:44:51.001Z,3.40
2023-05-07T13:47:18.432Z,3.73
2023-05-07T13:49:45.700Z,3.77
2023-05-07T13:52:12.921Z,3.80
2023-05-07T13:54:40.263Z,4.10
2023-05-07T13:57:07.590Z,3.77
2023-05-07T13:59:35.114Z,3.60
2023-05-07T14:02:02.513Z,3.23
2023-05-07T14:04:29.764Z,3.60
2023-05-07T14:06:57.020Z,3.77
2023-05-07T14:09:24.236Z,3.57
2023-05-07T14:11:52.332Z,3.20
2023-05-07T14:14:19.958Z,3.27
2023-05-07T14:16:48.650Z,3.33
2023-05-07T14:19:17.830Z,3.27
2023-05-07T14:21:45.149Z,2.80
2023-05-07T14:24:12.381Z,3.10
2023-05-07T14:26:39.571Z,3.17
2023-05-07T14:29:06.909Z,2.90
2023-05-07T14:31:34.478Z,2.67
2023-05-07T14:34:02.122Z,2.90
2023-05-07T14:36:31.165Z,2.80
2023-05-07T14:39:00.347Z,2.50
2023-05-07T14:41:27.699Z,2.73
2023-05-07T14:43:55.003Z,3.00
2023-05-07T14:46:22.373Z,2.90
2023-05-07T14:48:50.057Z,3.40
2023-05-07T14:51:17.285Z,3.60
2023-05-07T14:53:44.827Z,3.17
2023-05-07T14:56:12.094Z,3.47
2023-05-07T14:58:39.528Z,3.37
2023-05-07T15:01:06.726Z,3.50
2023-05-07T15:03:34.661Z,3.70
2023-05-07T15:06:01.934Z,3.70
2023-05-07T15:08:29.156Z,3.30
2023-05-07T15:10:56.639Z,3.90
2023-05-07T15:13:23.880Z,3.23
2023-05-07T15:15:51.390Z,3.20
2023-05-07T15:18:22.667Z,3.47
2023-05-07T15:20:50.501Z,3.73
2023-05-07T15:23:17.725Z,4.03
2023-05-07T15:25:50.441Z,4.23
2023-05-07T15:28:19.798Z,4.07
2023-05-07T15:30:47.022Z,4.20
2023-05-07T15:33:14.462Z,4.43
2023-05-07T15:35:45.026Z,4.00
2023-05-07T15:38:14.030Z,3.33
2023-05-07T15:40:42.796Z,3.70
2023-05-07T15:43:10.761Z,4.13
2023-05-07T15:45:42.117Z,3.97
2023-05-07T15:48:10.106Z,4.37
2023-05-07T15:50:37.700Z,4.27
2023-05-07T15:53:05.770Z,4.73
2023-05-07T15:55:33.466Z,4.23
2023-05-07T15:58:00.855Z,3.80
2023-05-07T16:00:28.572Z,4.27
2023-05-07T16:02:56.480Z,3.83
2023-05-07T16:05:24.288Z,4.40
2023-05-07T16:07:51.566Z,4.03
2023-05-07T16:10:18.779Z,4.47
2023-05-07T16:12:46.179Z,4.43
2023-05-07T16:15:13.758Z,3.97
2023-05-07T16:17:41.358Z,4.53
2023-05-07T16:20:09.175Z,4.40
2023-05-07T16:22:37.003Z,4.30
2023-05-07T16:25:05.575Z,4.37
2023-05-07T16:27:33.300Z,4.73
2023-05-07T16:30:00.745Z,4.13
2023-05-07T16:32:28.768Z,4.80
2023-05-07T16:34:56.312Z,4.13
2023-05-07T16:37:23.612Z,4.27
2023-05-07T16:39:50.885Z,4.87
2023-05-07T16:42:18.433Z,4.37
2023-05-07T16:44:46.114Z,4.27
2023-05-07T16:47:13.483Z,4.30
2023-05-07T16:49:40.866Z,4.00
2023-05-07T16:52:08.559Z,4.60
2023-05-07T16:54:38.790Z,4.13
2023-05-07T16:57:06.036Z,3.83
2023-05-07T16:59:33.625Z,4.03
2023-05-07T17:02:00.840Z,4.10
2023-05-07T17:04:29.766Z,4.20
2023-05-07T17:06:56.960Z,4.37
2023-05-07T17:09:24.464Z,3.93
2023-05-07T17:11:51.689Z,4.73
2023-05-07T17:14:18.936Z,4.07
2023-05-07T17:16:46.317Z,4.27
2023-05-07T17:19:13.903Z,4.03
2023-05-07T17:21:41.229Z,4.47
2023-05-07T17:24:08.565Z,4.23
2023-05-07T17:26:36.612Z,4.60
2023-05-07T17:29:04.376Z,4.17
2023-05-07T17:31:31.934Z,5.00
2023-05-07T17:33:59.129Z,4.23
2023-05-07T17:36:26.465Z,4.30
2023-05-07T17:38:53.642Z,4.07
2023-05-07T17:41:22.647Z,3.97
2023-05-07T17:43:50.119Z,4.40
2023-05-07T17:46:18.285Z,4.07
2023-05-07T17:48:45.647Z,3.90
2023-05-07T17:51:12.900Z,4.40
2023-05-07T17:53:40.137Z,4.50
2023-05-07T17:56:07.393Z,4.17
2023-05-07T17:58:41.253Z,4.47
2023-05-07T18:01:22.208Z,4.27
2023-05-07T18:03:49.511Z,3.90
2023-05-07T18:06:19.266Z,4.60
2023-05-07T18:08:46.682Z,4.10
2023-05-07T18:11:14.109Z,4.10
2023-05-07T18:13:41.356Z,4.50
2023-05-07T18:16:08.681Z,4.03
2023-05-07T18:18:36.013Z,4.73
2023-05-07T18:21:03.329Z,4.27
2023-05-07T18:23:30.847Z,4.97
2023-05-07T18:25:58.042Z,4.33
2023-05-07T18:28:25.234Z,4.77
2023-05-07T18:30:52.460Z,4.70
2023-05-07T18:33:19.766Z,4.00
2023-05-07T18:35:47.265Z,5.23
2023-05-07T18:38:14.677Z,4.67
2023-05-07T18:40:44.063Z,4.57
2023-05-07T18:43:11.917Z,4.83
2023-05-07T18:45:39.236Z,4.90
2023-05-07T18:48:07.090Z,4.50
2023-05-07T18:50:34.718Z,5.30
2023-05-07T18:53:02.708Z,4.70
2023-05-07T18:55:29.976Z,5.17
2023-05-07T18:57:57.247Z,5.00
2023-05-07T19:00:24.734Z,4.57
2023-05-07T19:02:51.951Z,4.97
2023-05-07T19:05:19.758Z,4.73
2023-05-07T19:07:47.258Z,4.90
2023-05-07T19:10:15.846Z,4.90
2023-05-07T19:12:43.129Z,5.47
2023-05-07T19:15:13.227Z,4.93
2023-05-07T19:17:40.799Z,4.93
2023-05-07T19:20:11.384Z,5.60
2023-05-07T19:22:38.985Z,4.67
2023-05-07T19:25:06.701Z,5.40
2023-05-07T19:27:34.038Z,4.93
2023-05-07T19:30:01.398Z,4.90
2023-05-07T19:32:29.317Z,6.10
2023-05-07T19:34:56.714Z,5.63
2023-05-07T19:37:25.659Z,5.40
2023-05-07T19:39:53.744Z,5.40
2023-05-07T19:42:21.378Z,5.33
2023-05-07T19:44:48.771Z,5.80
2023-05-07T19:47:16.599Z,4.90
2023-05-07T19:49:43.918Z,5.60
2023-05-07T19:52:13.934Z,5.23
2023-05-07T19:54:41.254Z,5.30
2023-05-07T19:57:08.649Z,5.13
2023-05-07T19:59:35.884Z,15.77
2023-05-07T20:02:03.288Z,11.13
2023-05-07T20:04:33.130Z,5.47
2023-05-07T20:07:01.459Z,6.13
2023-05-07T20:09:28.690Z,4.70
2023-05-07T20:11:56.686Z,5.10
2023-05-07T20:14:23.998Z,4.67
2023-05-07T20:16:51.427Z,5.20
2023-05-07T20:19:18.757Z,4.70
2023-05-07T20:21:46.430Z,4.60
2023-05-07T20:24:13.688Z,4.80
2023-05-07T20:26:41.222Z,4.87
2023-05-07T20:29:08.469Z,4.60
2023-05-07T20:31:35.789Z,4.70
2023-05-07T20:34:03.216Z,4.20
2023-05-07T20:36:30.428Z,4.20
2023-05-07T20:38:57.654Z,4.73
2023-05-07T20:41:25.477Z,4.80
2023-05-07T20:43:52.832Z,4.57
2023-05-07T20:46:22.644Z,4.33
2023-05-07T20:48:50.416Z,4.63
2023-05-07T20:51:17.728Z,3.60
2023-05-07T20:53:47.315Z,4.53
2023-05-07T20:56:15.334Z,3.93
2023-05-07T20:58:42.547Z,3.97
2023-05-07T21:01:09.881Z,4.03
2023-05-07T21:03:37.121Z,3.93
2023-05-07T21:06:04.513Z,3.97
2023-05-07T21:08:31.962Z,3.90
2023-05-07T21:10:59.517Z,3.93
2023-05-07T21:13:26.828Z,3.80
2023-05-07T21:15:54.090Z,3.83
2023-05-07T21:18:21.722Z,3.83
2023-05-07T21:20:48.959Z,3.90
2023-05-07T21:23:16.331Z,3.77
2023-05-07T21:25:47.063Z,3.83
2023-05-07T21:28:14.410Z,3.70
2023-05-07T21:30:41.761Z,4.30
2023-05-07T21:33:09.070Z,3.60
2023-05-07T21:35:39.282Z,4.00
2023-05-07T21:38:06.530Z,4.03
2023-05-07T21:40:33.763Z,3.70
2023-05-07T21:43:01.104Z,4.27
2023-05-07T21:45:28.523Z,3.60
2023-05-07T21:47:56.479Z,4.03
2023-05-07T21:50:24.101Z,4.07
2023-05-07T21:52:51.429Z,3.37
2023-05-07T21:55:18.952Z,4.10
2023-05-07T21:58:01.155Z,4.03
2023-05-07T22:00:31.898Z,3.60
2023-05-07T22:02:59.222Z,4.37
2023-05-07T22:05:26.443Z,3.97
2023-05-07T22:07:53.677Z,3.63
2023-05-07T22:10:23.119Z,3.97
2023-05-07T22:12:50.621Z,3.97
2023-05-07T22:15:18.013Z,4.00
2023-05-07T22:17:45.492Z,4.30
2023-05-07T22:20:13.320Z,4.27
2023-05-07T22:22:49.343Z,4.30
2023-05-07T22:25:18.399Z,3.77
2023-05-07T22:27:45.628Z,3.90
2023-05-07T22:30:13.161Z,4.10
2023-05-07T22:32:42.410Z,3.70
2023-05-07T22:35:10.034Z,3.90
2023-05-07T22:37:37.273Z,3.80
2023-05-07T22:40:05.380Z,4.50
2023-05-07T22:42:32.525Z,3.97
2023-05-07T22:45:00.257Z,3.80
2023-05-07T22:47:29.737Z,4.30
2023-05-07T22:49:57.113Z,3.97
2023-05-07T22:52:24.398Z,3.73
2023-05-07T22:54:51.687Z,4.33
2023-05-07T22:57:18.870Z,3.80
2023-05-07T22:59:46.600Z,4.00
2023-05-07T23:02:13.866Z,3.67
2023-05-07T23:04:41.082Z,4.20
2023-05-07T23:07:08.312Z,4.60
2023-05-07T23:09:35.497Z,4.13
2023-05-07T23:12:03.523Z,4.13
2023-05-07T23:14:30.745Z,4.47
2023-05-07T23:16:58.276Z,3.87
2023-05-07T23:19:25.628Z,4.43
2023-05-07T23:21:53.273Z,4.00
2023-05-07T23:24:20.613Z,4.30
2023-05-07T23:26:47.799Z,4.57
2023-05-07T23:29:14.959Z,4.37
2023-05-07T23:31:42.133Z,4.57
2023-05-07T23:34:09.705Z,4.13
2023-05-07T23:36:36.889Z,4.30
2023-05-07T23:39:04.194Z,3.80
2023-05-07T23:41:31.466Z,3.90
2023-05-07T23:43:58.666Z,4.30
2023-05-07T23:46:26.908Z,4.10
2023-05-07T23:48:54.171Z,4.10
2023-05-07T23:51:21.400Z,4.23
2023-05-07T23:53:48.565Z,4.20
2023-05-07T23:56:16.428Z,4.43
2023-05-07T23:58:43.651Z,4.20
